METAR AND TAF INFORMATION
METAR FOR LIRS
ADDS - METARS form results

(1159 UTC 07 August 2020)
Data provider http://aviationweather.gov/metar/data/
 
Forecast for: LIRS (GROSSETO (IT-AFB, IT)
Text: TAF LIRS 071100Z 0712/0721 02015KT 9999 FEW025
Forecast period: 1200 to 2100 UTC 07 August 2020
Forecast type: FROM: standard forecast or significant change
Winds: from the NNE (20 degrees) at 17 MPH (15 knots; 7.7 m/s)
Visibility: 6 or more miles (10+ km)
Ceiling: at least 12,000 feet AGL
Clouds: few clouds at 2500 feet AGL
Weather: no significant weather forecast for this period

 AIRPORT MAP

 RUNWAY INFORMATION
Runway 03 Runway length 9823 ft Runway width 148 ft
Runway elevation 14 ft Runway displaced threshold 317 ft Runway heading 31
Runway 21 Runway length 9823 ft Runway width 148 ft
Runway elevation 15 ft Runway displaced threshold 0 ft Runway heading 211
Runway 03R Runway length 7729 ft Runway width 80 ft
Runway elevation 0 ft Runway displaced threshold 0 ft Runway heading 31
Runway 21L Runway length 7729 ft Runway width 80 ft
Runway elevation 0 ft Runway displaced threshold 0 ft Runway heading 211

 AIRPORT FREQUENCIES
Type APP Name APP Frequency 122.1 MHZ
Type GND Name GND Frequency 28.035 MHZ
Type TWR Name TWR Frequency 122.1 MHZ

 AIRPORT NEAR NAVIGATION AIDS
Type TACAN Name Grosseto Frequency 109100 KHZ
Type NDB Name Grosseto Frequency 406 KHZ



Powered by Virtual Airlines Manager [v2.6.2]